Other Surface Observations
Issued by NWS Great Falls, MT

Home | Current Version | Previous Version | Text Only | Print | Product List | Glossary On
Versions: 1 2 3 4 5 6 7 8 9 10 11 12 13 14 15 16 17 18 19 20 21 22 23 24 25 26 27 28 29 30 31 32 33 34 35 36 37 38 39 40 41 42 43 44 45 46 47 48 49 50
000
SXUS55 KTFX 231502
OSOTFX

AREA AWOS OBSERVATIONS
NATIONAL WEATHER SERVICE GREAT FALLS MT
0807 AM MDT Sun Jul 23 2017

METAR K6S8 231355Z AUTO 20003KT 25SM 16/03 A3009 RMK A01 T01550033
METAR K7S0 231255Z AUTO 12000KT 40SM 11/09 A3011 RMK A01 T01110088
METAR K7S1 231355Z AUTO 10000KT 25SM 13/04 A3015 RMK A01 T01270044
METAR K97M 231355Z AUTO 13008KT 40SM 23/06 A3009 RMK A01 T02270055
METAR K9S2 231355Z AUTO 35002KT 25SM 18/09 A3004 RMK A01 T01770088
METAR K9S5 231355Z AUTO 14000KT 25SM 14/07 A3013 RMK A01 T01380066
METAR KRPX 231355Z AUTO 19010KT 40SM 16/02 A3000 RMK A01 T01610022
METAR KS01 231355Z AUTO 26002KT 254 SM 18/12 A3008 RMK A01 T01830116
METAR KS34 231355Z AUTO 26000KT 40SM 14/09 A3007 RMK A01 T01440094
METAR KTHM 231255Z AUTO 25000KT 40SM 11/07 A3011 RMK A01 T01050072



USA.gov is the U.S. government's official web portal to all federal, state and local government web resources and services.